sensor_id;sensor_type;location;lat;lon;timestamp;temperature;humidity
20418;DHT22;10368;51.436;6.774;2022-08-21T01:46:17;24.00;82.20
20418;DHT22;10368;51.436;6.774;2022-08-21T01:48:44;18.80;99.90
20418;DHT22;10368;51.436;6.774;2022-08-21T01:51:11;18.70;99.90
20418;DHT22;10368;51.436;6.774;2022-08-21T01:53:38;18.50;99.90
20418;DHT22;10368;51.436;6.774;2022-08-21T01:56:08;18.40;99.90
20418;DHT22;10368;51.436;6.774;2022-08-21T01:58:42;18.30;99.90
20418;DHT22;10368;51.436;6.774;2022-08-21T02:01:09;18.20;99.90
20418;DHT22;10368;51.436;6.774;2022-08-21T03:20:30;17.40;99.90
20418;DHT22;10368;51.436;6.774;2022-08-21T03:23:00;17.50;99.90
20418;DHT22;10368;51.436;6.774;2022-08-21T03:25:28;17.50;99.90
20418;DHT22;10368;51.436;6.774;2022-08-21T03:28:11;17.40;99.90
20418;DHT22;10368;51.436;6.774;2022-08-21T03:30:43;17.50;99.90
20418;DHT22;10368;51.436;6.774;2022-08-21T03:33:11;17.40;99.90
20418;DHT22;10368;51.436;6.774;2022-08-21T03:35:46;17.30;99.90
20418;DHT22;10368;51.436;6.774;2022-08-21T03:38:14;17.20;99.90
20418;DHT22;10368;51.436;6.774;2022-08-21T03:40:43;17.30;99.90
20418;DHT22;10368;51.436;6.774;2022-08-21T03:43:10;17.30;99.90
20418;DHT22;10368;51.436;6.774;2022-08-21T03:45:38;17.40;99.90
20418;DHT22;10368;51.436;6.774;2022-08-21T03:48:06;17.30;99.90
20418;DHT22;10368;51.436;6.774;2022-08-21T03:50:36;17.20;99.90
20418;DHT22;10368;51.436;6.774;2022-08-21T03:53:08;17.20;99.90
20418;DHT22;10368;51.436;6.774;2022-08-21T03:55:45;17.10;99.90
20418;DHT22;10368;51.436;6.774;2022-08-21T03:58:13;17.20;99.90
20418;DHT22;10368;51.436;6.774;2022-08-21T04:00:44;17.10;99.90
20418;DHT22;10368;51.436;6.774;2022-08-21T04:03:11;17.10;99.90
20418;DHT22;10368;51.436;6.774;2022-08-21T04:05:38;17.10;99.90
20418;DHT22;10368;51.436;6.774;2022-08-21T04:08:06;17.10;99.90
20418;DHT22;10368;51.436;6.774;2022-08-21T04:10:35;17.00;99.90
20418;DHT22;10368;51.436;6.774;2022-08-21T05:27:37;17.00;99.90
20418;DHT22;10368;51.436;6.774;2022-08-21T05:30:06;16.50;99.90
20418;DHT22;10368;51.436;6.774;2022-08-21T05:32:35;16.40;99.90
20418;DHT22;10368;51.436;6.774;2022-08-21T05:35:06;16.40;99.90
20418;DHT22;10368;51.436;6.774;2022-08-21T05:37:34;16.40;99.90
20418;DHT22;10368;51.436;6.774;2022-08-21T05:40:02;16.50;99.90
20418;DHT22;10368;51.436;6.774;2022-08-21T05:42:48;16.40;99.90
20418;DHT22;10368;51.436;6.774;2022-08-21T05:45:30;16.40;99.90
20418;DHT22;10368;51.436;6.774;2022-08-21T05:50:35;16.40;99.90
20418;DHT22;10368;51.436;6.774;2022-08-21T05:53:05;16.40;99.90
20418;DHT22;10368;51.436;6.774;2022-08-21T05:55:33;16.40;99.90
20418;DHT22;10368;51.436;6.774;2022-08-21T05:58:02;16.50;99.90
20418;DHT22;10368;51.436;6.774;2022-08-21T06:00:29;16.40;99.90
20418;DHT22;10368;51.436;6.774;2022-08-21T06:02:56;16.40;99.90
20418;DHT22;10368;51.436;6.774;2022-08-21T06:05:23;16.50;99.90
20418;DHT22;10368;51.436;6.774;2022-08-21T06:08:03;16.60;99.90
20418;DHT22;10368;51.436;6.774;2022-08-21T06:10:30;16.50;99.90
20418;DHT22;10368;51.436;6.774;2022-08-21T06:12:57;16.60;99.90
20418;DHT22;10368;51.436;6.774;2022-08-21T06:15:25;16.60;99.90
20418;DHT22;10368;51.436;6.774;2022-08-21T06:17:53;16.70;99.90
20418;DHT22;10368;51.436;6.774;2022-08-21T06:20:21;16.80;99.90
20418;DHT22;10368;51.436;6.774;2022-08-21T06:22:48;16.70;99.90
20418;DHT22;10368;51.436;6.774;2022-08-21T06:25:17;16.80;99.90
20418;DHT22;10368;51.436;6.774;2022-08-21T06:27:45;16.90;99.90
20418;DHT22;10368;51.436;6.774;2022-08-21T06:30:12;17.00;99.90
20418;DHT22;10368;51.436;6.774;2022-08-21T06:32:39;17.10;99.90
20418;DHT22;10368;51.436;6.774;2022-08-21T06:35:07;17.20;99.90
20418;DHT22;10368;51.436;6.774;2022-08-21T06:37:34;17.20;99.90
20418;DHT22;10368;51.436;6.774;2022-08-21T06:40:03;17.30;99.90
20418;DHT22;10368;51.436;6.774;2022-08-21T06:42:30;17.20;99.90
20418;DHT22;10368;51.436;6.774;2022-08-21T06:44:57;17.30;99.90
20418;DHT22;10368;51.436;6.774;2022-08-21T06:47:24;17.30;99.90
20418;DHT22;10368;51.436;6.774;2022-08-21T06:49:51;17.40;99.90
20418;DHT22;10368;51.436;6.774;2022-08-21T06:52:18;17.40;99.90
20418;DHT22;10368;51.436;6.774;2022-08-21T06:54:45;17.50;99.90
20418;DHT22;10368;51.436;6.774;2022-08-21T06:57:12;17.50;99.90
20418;DHT22;10368;51.436;6.774;2022-08-21T06:59:39;17.60;99.90
20418;DHT22;10368;51.436;6.774;2022-08-21T07:02:07;17.60;99.90
20418;DHT22;10368;51.436;6.774;2022-08-21T07:04:34;17.60;99.90
20418;DHT22;10368;51.436;6.774;2022-08-21T07:07:01;17.70;99.90
20418;DHT22;10368;51.436;6.774;2022-08-21T07:09:28;17.70;99.90
20418;DHT22;10368;51.436;6.774;2022-08-21T07:11:55;17.90;99.90
20418;DHT22;10368;51.436;6.774;2022-08-21T07:14:23;17.90;99.90
20418;DHT22;10368;51.436;6.774;2022-08-21T07:16:52;18.00;99.90
20418;DHT22;10368;51.436;6.774;2022-08-21T07:19:19;18.00;99.90
20418;DHT22;10368;51.436;6.774;2022-08-21T07:21:47;18.00;99.90
20418;DHT22;10368;51.436;6.774;2022-08-21T07:24:14;18.00;99.90
20418;DHT22;10368;51.436;6.774;2022-08-21T07:26:41;18.10;99.90
20418;DHT22;10368;51.436;6.774;2022-08-21T07:29:08;18.20;99.90
20418;DHT22;10368;51.436;6.774;2022-08-21T07:31:35;18.20;99.90
20418;DHT22;10368;51.436;6.774;2022-08-21T07:34:02;18.20;99.90
20418;DHT22;10368;51.436;6.774;2022-08-21T07:36:29;18.30;99.90
20418;DHT22;10368;51.436;6.774;2022-08-21T07:38:58;18.30;99.90
20418;DHT22;10368;51.436;6.774;2022-08-21T07:41:28;18.20;99.90
20418;DHT22;10368;51.436;6.774;2022-08-21T07:43:56;18.30;99.90
20418;DHT22;10368;51.436;6.774;2022-08-21T07:46:24;18.40;99.90
20418;DHT22;10368;51.436;6.774;2022-08-21T07:48:52;18.50;99.90
20418;DHT22;10368;51.436;6.774;2022-08-21T07:51:22;18.60;99.90
20418;DHT22;10368;51.436;6.774;2022-08-21T07:53:54;18.70;99.90
20418;DHT22;10368;51.436;6.774;2022-08-21T07:56:22;18.70;99.90
20418;DHT22;10368;51.436;6.774;2022-08-21T07:58:49;18.60;99.90
20418;DHT22;10368;51.436;6.774;2022-08-21T08:01:19;18.60;99.90
20418;DHT22;10368;51.436;6.774;2022-08-21T08:03:49;18.70;99.90
20418;DHT22;10368;51.436;6.774;2022-08-21T08:06:17;18.70;99.90
20418;DHT22;10368;51.436;6.774;2022-08-21T08:08:45;18.80;99.90
20418;DHT22;10368;51.436;6.774;2022-08-21T08:11:13;18.70;99.90
20418;DHT22;10368;51.436;6.774;2022-08-21T08:13:45;18.70;99.90
20418;DHT22;10368;51.436;6.774;2022-08-21T08:16:13;18.90;99.90
20418;DHT22;10368;51.436;6.774;2022-08-21T08:18:40;18.90;99.90
20418;DHT22;10368;51.436;6.774;2022-08-21T08:21:09;19.00;99.90
20418;DHT22;10368;51.436;6.774;2022-08-21T08:23:37;19.00;99.90
20418;DHT22;10368;51.436;6.774;2022-08-21T08:26:04;19.10;99.90
20418;DHT22;10368;51.436;6.774;2022-08-21T08:28:32;19.20;99.90
20418;DHT22;10368;51.436;6.774;2022-08-21T08:31:00;19.40;99.90
20418;DHT22;10368;51.436;6.774;2022-08-21T08:33:27;19.40;99.90
20418;DHT22;10368;51.436;6.774;2022-08-21T08:35:54;19.40;99.90
20418;DHT22;10368;51.436;6.774;2022-08-21T08:38:23;19.40;99.90
20418;DHT22;10368;51.436;6.774;2022-08-21T08:43:34;19.50;99.90
20418;DHT22;10368;51.436;6.774;2022-08-21T08:46:06;19.70;99.90
20418;DHT22;10368;51.436;6.774;2022-08-21T08:48:53;19.90;99.90
20418;DHT22;10368;51.436;6.774;2022-08-21T08:51:50;20.00;99.60
20418;DHT22;10368;51.436;6.774;2022-08-21T08:54:43;19.90;99.60
20418;DHT22;10368;51.436;6.774;2022-08-21T08:57:16;19.90;99.50
20418;DHT22;10368;51.436;6.774;2022-08-21T08:59:46;19.90;99.40
20418;DHT22;10368;51.436;6.774;2022-08-21T09:02:16;19.80;99.90
20418;DHT22;10368;51.436;6.774;2022-08-21T09:04:45;19.90;99.80
20418;DHT22;10368;51.436;6.774;2022-08-21T09:09:59;20.00;99.40
20418;DHT22;10368;51.436;6.774;2022-08-21T09:12:33;20.10;99.60
20418;DHT22;10368;51.436;6.774;2022-08-21T09:15:15;20.10;99.40
20418;DHT22;10368;51.436;6.774;2022-08-21T09:23:36;20.30;99.40
20418;DHT22;10368;51.436;6.774;2022-08-21T09:26:14;20.50;99.00
20418;DHT22;10368;51.436;6.774;2022-08-21T09:28:42;20.30;98.90
20418;DHT22;10368;51.436;6.774;2022-08-21T09:31:32;20.50;98.90
20418;DHT22;10368;51.436;6.774;2022-08-21T09:34:00;20.70;98.20
20418;DHT22;10368;51.436;6.774;2022-08-21T09:36:48;20.70;98.20
20418;DHT22;10368;51.436;6.774;2022-08-21T09:39:31;20.80;97.70
20418;DHT22;10368;51.436;6.774;2022-08-21T09:42:08;20.70;97.80
20418;DHT22;10368;51.436;6.774;2022-08-21T09:44:38;20.70;97.60
20418;DHT22;10368;51.436;6.774;2022-08-21T09:47:07;20.70;97.50
20418;DHT22;10368;51.436;6.774;2022-08-21T09:49:37;20.90;96.80
20418;DHT22;10368;51.436;6.774;2022-08-21T09:52:15;21.00;97.40
20418;DHT22;10368;51.436;6.774;2022-08-21T09:54:45;21.30;96.20
20418;DHT22;10368;51.436;6.774;2022-08-21T09:57:25;21.30;95.70
20418;DHT22;10368;51.436;6.774;2022-08-21T10:00:29;21.20;96.20
20418;DHT22;10368;51.436;6.774;2022-08-21T10:03:31;21.20;96.20
20418;DHT22;10368;51.436;6.774;2022-08-21T10:06:05;21.50;95.60
20418;DHT22;10368;51.436;6.774;2022-08-21T10:08:38;21.70;94.90
20418;DHT22;10368;51.436;6.774;2022-08-21T10:11:12;21.90;94.80
20418;DHT22;10368;51.436;6.774;2022-08-21T10:24:46;22.10;94.40
20418;DHT22;10368;51.436;6.774;2022-08-21T10:27:37;22.20;93.80
20418;DHT22;10368;51.436;6.774;2022-08-21T10:30:31;22.50;93.60
20418;DHT22;10368;51.436;6.774;2022-08-21T10:36:13;22.50;93.40
20418;DHT22;10368;51.436;6.774;2022-08-21T10:44:57;22.90;92.40
20418;DHT22;10368;51.436;6.774;2022-08-21T10:47:34;23.30;92.00
20418;DHT22;10368;51.436;6.774;2022-08-21T10:50:19;23.30;92.10
20418;DHT22;10368;51.436;6.774;2022-08-21T10:55:31;23.70;90.70
20418;DHT22;10368;51.436;6.774;2022-08-21T10:58:14;23.60;91.20
20418;DHT22;10368;51.436;6.774;2022-08-21T11:00:49;23.80;91.00
20418;DHT22;10368;51.436;6.774;2022-08-21T11:03:32;23.50;90.00
20418;DHT22;10368;51.436;6.774;2022-08-21T11:08:43;23.50;90.20
20418;DHT22;10368;51.436;6.774;2022-08-21T11:11:30;23.60;90.30
20418;DHT22;10368;51.436;6.774;2022-08-21T11:14:21;23.60;90.40
20418;DHT22;10368;51.436;6.774;2022-08-21T11:17:18;23.70;90.30
20418;DHT22;10368;51.436;6.774;2022-08-21T11:22:29;23.70;89.30
20418;DHT22;10368;51.436;6.774;2022-08-21T11:27:52;24.60;87.60
20418;DHT22;10368;51.436;6.774;2022-08-21T11:30:23;24.90;86.20
20418;DHT22;10368;51.436;6.774;2022-08-21T11:36:00;24.70;82.20
20418;DHT22;10368;51.436;6.774;2022-08-21T11:38:42;24.90;82.40
20418;DHT22;10368;51.436;6.774;2022-08-21T11:44:19;25.20;82.80
20418;DHT22;10368;51.436;6.774;2022-08-21T11:50:15;25.20;80.70
20418;DHT22;10368;51.436;6.774;2022-08-21T11:56:03;25.50;81.40
20418;DHT22;10368;51.436;6.774;2022-08-21T11:58:56;25.60;80.80
20418;DHT22;10368;51.436;6.774;2022-08-21T12:01:30;25.40;81.30
20418;DHT22;10368;51.436;6.774;2022-08-21T12:04:05;25.30;81.50
20418;DHT22;10368;51.436;6.774;2022-08-21T12:06:38;25.30;81.70
20418;DHT22;10368;51.436;6.774;2022-08-21T12:14:49;26.30;78.50
20418;DHT22;10368;51.436;6.774;2022-08-21T12:17:23;26.90;78.00
20418;DHT22;10368;51.436;6.774;2022-08-21T12:20:17;26.50;78.80
20418;DHT22;10368;51.436;6.774;2022-08-21T12:22:52;26.60;76.30
20418;DHT22;10368;51.436;6.774;2022-08-21T12:25:21;26.70;75.70
20418;DHT22;10368;51.436;6.774;2022-08-21T12:27:51;27.30;74.40
20418;DHT22;10368;51.436;6.774;2022-08-21T12:32:58;26.50;72.50
20418;DHT22;10368;51.436;6.774;2022-08-21T12:35:32;25.60;74.50
20418;DHT22;10368;51.436;6.774;2022-08-21T12:38:14;25.90;74.90
20418;DHT22;10368;51.436;6.774;2022-08-21T12:40:56;25.60;75.00
20418;DHT22;10368;51.436;6.774;2022-08-21T12:43:32;26.10;74.20
20418;DHT22;10368;51.436;6.774;2022-08-21T12:46:03;26.50;74.60
20418;DHT22;10368;51.436;6.774;2022-08-21T12:51:26;26.20;76.40
20418;DHT22;10368;51.436;6.774;2022-08-21T12:53:57;26.20;75.30
20418;DHT22;10368;51.436;6.774;2022-08-21T12:56:27;26.70;74.90
20418;DHT22;10368;51.436;6.774;2022-08-21T12:59:04;26.70;75.60
20418;DHT22;10368;51.436;6.774;2022-08-21T13:01:38;27.10;74.70
20418;DHT22;10368;51.436;6.774;2022-08-21T13:04:15;27.50;73.40
20418;DHT22;10368;51.436;6.774;2022-08-21T13:09:15;28.50;69.70
20418;DHT22;10368;51.436;6.774;2022-08-21T13:11:45;27.60;72.60
20418;DHT22;10368;51.436;6.774;2022-08-21T13:14:29;27.60;72.70
20418;DHT22;10368;51.436;6.774;2022-08-21T13:16:58;27.90;72.00
20418;DHT22;10368;51.436;6.774;2022-08-21T13:19:26;27.60;72.40
20418;DHT22;10368;51.436;6.774;2022-08-21T13:21:53;28.30;71.20
